Airport ID:KO69
Update Time (UTC):19/10/2019 20:56
Wind Speed (Knots):13
Wind Direction (Magnetic):260
Temperature (°C):19
Dew Point (°C):16
Humidity (%):85
Altimeter (inHg):30.06
Density Altitude (Feet):
Visibility (Miles):10+
Clouds (Hundreds of feet):OVC014
Present Weather:
METAR:METAR KO69 192055Z AUTO 27012KT 10SM OVC014 19/16 A3007 RMK A01

The data displayed is for advisory purposes only and is not to be used for flight planning or operations.

This page is not automatically refreshed. Reload the page to see current data.